Time;durP1;ratioP1;P1;durP2;ratioP2;P2;SDS_P1;SDS_P2;PMS_P1;PMS_P2;Temp;Humidity;BMP_temperature;BMP_pressure;BME280_temperature;BME280_humidity;BME280_pressure;Samples;Min_cycle;Max_cycle;Signal;HPM_P1;HPM_P2
2022/05/12 00:01:07;;;;;;;13.10;4.25;;;;;;;;;;5071690;28;20396;-70
2022/05/12 00:03:33;;;;;;;11.77;4.47;;;;;;;;;;5071290;28;20055;-68
2022/05/12 00:05:58;;;;;;;9.80;3.90;;;;;;;;;;5071846;28;20089;-68
2022/05/12 00:08:24;;;;;;;8.02;4.20;;;;;;;;;;5071217;28;20066;-68
2022/05/12 00:10:49;;;;;;;7.32;4.05;;;;;;;;;;5071715;28;20050;-68
2022/05/12 00:13:14;;;;;;;8.35;4.20;;;;;;;;;;5072005;28;20082;-64
2022/05/12 00:15:40;;;;;;;10.38;4.50;;;;;;;;;;5071302;28;20082;-69
2022/05/12 00:18:08;;;;;;;10.38;4.40;;;;;;;;;;5071536;28;20589;-70
2022/05/12 00:20:39;;;;;;;8.25;3.90;;;;;;;;;;5071203;28;20161;-67
2022/05/12 00:23:16;;;;;;;9.50;3.95;;;;;;;;;;5071286;28;20021;-69
2022/05/12 00:25:47;;;;;;;10.23;4.43;;;;;;;;;;5071280;28;20024;-64
2022/05/12 00:28:14;;;;;;;9.35;3.90;;;;;;;;;;5071699;28;20028;-68
2022/05/12 00:30:40;;;;;;;8.40;3.88;;;;;;;;;;5070982;28;20508;-64
2022/05/12 00:33:06;;;;;;;9.55;3.90;;;;;;;;;;5071097;28;20044;-66
2022/05/12 00:35:32;;;;;;;5.93;3.35;;;;;;;;;;5071046;28;20035;-65
2022/05/12 00:37:58;;;;;;;9.95;3.97;;;;;;;;;;5070917;28;20388;-71
2022/05/12 00:40:23;;;;;;;9.35;4.13;;;;;;;;;;5070888;28;20318;-69
2022/05/12 00:42:54;;;;;;;9.15;4.18;;;;;;;;;;5070860;28;20510;-64
2022/05/12 00:45:20;;;;;;;9.10;3.67;;;;;;;;;;5071069;28;20020;-70
2022/05/12 00:47:45;;;;;;;7.85;3.65;;;;;;;;;;5071006;28;20044;-69
2022/05/12 00:50:11;;;;;;;7.97;3.88;;;;;;;;;;5070933;28;20460;-64
2022/05/12 00:52:37;;;;;;;8.30;4.07;;;;;;;;;;5070917;28;20032;-67
2022/05/12 00:55:07;;;;;;;9.68;4.10;;;;;;;;;;5070452;28;20020;-67
2022/05/12 00:57:37;;;;;;;7.60;3.78;;;;;;;;;;5070819;28;20044;-64
2022/05/12 01:00:05;;;;;;;9.00;3.92;;;;;;;;;;5070430;28;20107;-66
2022/05/12 01:02:33;;;;;;;9.85;4.03;;;;;;;;;;5070626;28;20115;-67
2022/05/12 01:04:58;;;;;;;7.38;3.60;;;;;;;;;;5070429;28;20044;-64
2022/05/12 01:07:25;;;;;;;8.40;3.85;;;;;;;;;;5071090;28;20037;-64
2022/05/12 01:09:52;;;;;;;6.70;3.70;;;;;;;;;;5070129;28;20111;-70
2022/05/12 01:12:18;;;;;;;8.65;4.32;;;;;;;;;;5070163;28;20162;-69
2022/05/12 01:14:43;;;;;;;9.07;4.07;;;;;;;;;;5070000;28;20105;-68
2022/05/12 01:17:09;;;;;;;12.07;4.28;;;;;;;;;;5070589;28;20479;-65
2022/05/12 01:19:38;;;;;;;11.82;4.13;;;;;;;;;;5069505;28;20052;-65
2022/05/12 01:22:06;;;;;;;8.52;4.38;;;;;;;;;;5070411;28;20029;-65
2022/05/12 01:24:38;;;;;;;10.77;4.50;;;;;;;;;;5070029;28;20052;-70
2022/05/12 01:27:20;;;;;;;8.20;4.28;;;;;;;;;;5070264;28;20024;-69
2022/05/12 01:29:51;;;;;;;10.00;4.35;;;;;;;;;;5069733;28;20480;-70
2022/05/12 01:32:18;;;;;;;9.68;4.22;;;;;;;;;;5070081;28;20112;-64
2022/05/12 01:34:44;;;;;;;12.70;4.55;;;;;;;;;;5069935;28;20404;-65
2022/05/12 01:37:09;;;;;;;9.13;4.10;;;;;;;;;;5070367;28;20029;-65
2022/05/12 01:39:36;;;;;;;6.30;3.70;;;;;;;;;;5069944;28;20110;-65
2022/05/12 01:42:03;;;;;;;10.32;4.43;;;;;;;;;;5070066;28;20021;-65
2022/05/12 01:44:29;;;;;;;7.20;4.05;;;;;;;;;;5069658;28;20027;-69
2022/05/12 01:46:56;;;;;;;8.02;3.55;;;;;;;;;;5070182;28;20036;-65
2022/05/12 01:49:22;;;;;;;7.55;3.88;;;;;;;;;;5069953;28;20039;-69
2022/05/12 01:51:51;;;;;;;8.85;3.55;;;;;;;;;;5069791;28;20028;-66
2022/05/12 01:54:17;;;;;;;7.38;3.20;;;;;;;;;;5069912;28;20025;-70
2022/05/12 01:56:42;;;;;;;9.45;3.65;;;;;;;;;;5069992;28;20035;-70
2022/05/12 01:59:08;;;;;;;9.00;3.75;;;;;;;;;;5069952;28;20388;-65
2022/05/12 02:01:33;;;;;;;4.72;3.38;;;;;;;;;;5069565;28;20039;-65
2022/05/12 02:03:58;;;;;;;6.18;3.20;;;;;;;;;;5069682;28;20025;-65
2022/05/12 02:06:24;;;;;;;6.40;3.33;;;;;;;;;;5069981;28;20421;-68
2022/05/12 02:08:49;;;;;;;8.30;3.35;;;;;;;;;;5069917;28;20029;-68
2022/05/12 02:11:17;;;;;;;9.60;3.70;;;;;;;;;;5069744;28;20017;-63
2022/05/12 02:13:43;;;;;;;6.93;3.45;;;;;;;;;;5069827;28;20040;-66
2022/05/12 02:16:08;;;;;;;7.68;3.38;;;;;;;;;;5069606;28;20511;-69
2022/05/12 02:18:34;;;;;;;5.93;3.10;;;;;;;;;;5069808;28;20049;-68
2022/05/12 02:20:59;;;;;;;7.75;3.17;;;;;;;;;;5069445;28;20017;-64
2022/05/12 02:23:25;;;;;;;6.20;3.20;;;;;;;;;;5069694;28;20017;-65
2022/05/12 02:25:50;;;;;;;10.52;3.58;;;;;;;;;;5069811;28;20469;-69
2022/05/12 02:28:16;;;;;;;8.18;3.28;;;;;;;;;;5069948;28;20052;-65
2022/05/12 02:30:42;;;;;;;5.97;3.47;;;;;;;;;;5071202;28;20086;-70
2022/05/12 02:33:09;;;;;;;7.97;3.50;;;;;;;;;;5055450;28;20025;-70
2022/05/12 02:35:35;;;;;;;5.30;3.15;;;;;;;;;;5073309;28;20099;-66
2022/05/12 02:38:01;;;;;;;9.10;3.28;;;;;;;;;;5073073;28;20068;-65
2022/05/12 02:40:28;;;;;;;6.45;3.13;;;;;;;;;;5073324;28;20024;-70
2022/05/12 02:42:55;;;;;;;7.55;3.33;;;;;;;;;;5073167;28;20029;-68
2022/05/12 02:45:20;;;;;;;8.20;3.40;;;;;;;;;;5073185;28;20025;-66
2022/05/12 02:47:45;;;;;;;7.93;3.40;;;;;;;;;;5073127;28;20032;-67
2022/05/12 02:50:13;;;;;;;7.47;3.40;;;;;;;;;;5073014;28;20124;-69
2022/05/12 02:52:39;;;;;;;6.95;3.50;;;;;;;;;;5072788;28;20052;-66
2022/05/12 02:55:05;;;;;;;8.38;3.53;;;;;;;;;;5072832;28;20236;-65
2022/05/12 02:57:30;;;;;;;9.85;4.00;;;;;;;;;;5072781;28;20017;-69
2022/05/12 02:59:56;;;;;;;6.97;3.80;;;;;;;;;;5072981;28;20020;-69
2022/05/12 03:02:21;;;;;;;5.88;3.60;;;;;;;;;;5072789;28;20021;-70
2022/05/12 03:04:47;;;;;;;7.53;4.00;;;;;;;;;;5072843;28;20063;-69
2022/05/12 03:07:12;;;;;;;7.30;3.53;;;;;;;;;;5073082;28;20391;-69
2022/05/12 03:09:38;;;;;;;6.63;3.53;;;;;;;;;;5072812;28;20067;-67
2022/05/12 03:12:04;;;;;;;9.02;3.72;;;;;;;;;;5054741;28;20028;-65
2022/05/12 03:14:29;;;;;;;7.25;3.70;;;;;;;;;;5072185;28;20031;-66
2022/05/12 03:16:55;;;;;;;7.53;3.50;;;;;;;;;;5072857;28;20028;-69
2022/05/12 03:19:22;;;;;;;7.20;3.40;;;;;;;;;;5072966;28;20499;-65
2022/05/12 03:21:47;;;;;;;7.28;3.20;;;;;;;;;;5072505;28;20480;-68
2022/05/12 03:24:15;;;;;;;6.15;3.13;;;;;;;;;;5054525;28;20036;-67
2022/05/12 03:26:40;;;;;;;9.73;3.45;;;;;;;;;;5072211;28;20047;-64
2022/05/12 03:29:06;;;;;;;7.57;3.30;;;;;;;;;;5072595;28;20484;-64
2022/05/12 03:31:31;;;;;;;7.70;3.60;;;;;;;;;;5072159;28;20472;-66
2022/05/12 03:33:57;;;;;;;7.00;3.45;;;;;;;;;;5072522;28;20396;-70
2022/05/12 03:36:22;;;;;;;10.48;3.58;;;;;;;;;;5072374;28;20087;-66
2022/05/12 03:38:48;;;;;;;8.05;3.67;;;;;;;;;;5072270;28;20045;-70
2022/05/12 03:41:14;;;;;;;6.07;3.60;;;;;;;;;;5071904;28;20096;-65
2022/05/12 03:46:23;;;;;;;6.53;3.47;;;;;;;;;;5071878;28;20067;-63
2022/05/12 03:48:49;;;;;;;8.40;4.10;;;;;;;;;;5072258;28;20029;-69
2022/05/12 03:51:15;;;;;;;8.48;4.20;;;;;;;;;;5071926;28;20381;-71
2022/05/12 03:53:40;;;;;;;10.35;3.85;;;;;;;;;;5072029;28;20116;-65
2022/05/12 03:56:08;;;;;;;8.48;3.88;;;;;;;;;;5072087;28;20464;-68
2022/05/12 03:58:34;;;;;;;7.80;4.25;;;;;;;;;;5071915;28;20055;-64
2022/05/12 04:01:01;;;;;;;10.73;4.45;;;;;;;;;;5071843;28;20535;-69
2022/05/12 04:03:26;;;;;;;7.22;3.88;;;;;;;;;;5071473;28;20405;-70
2022/05/12 04:05:54;;;;;;;9.77;4.57;;;;;;;;;;5071843;28;20289;-68
2022/05/12 04:08:20;;;;;;;9.07;4.60;;;;;;;;;;5071552;28;20054;-68
2022/05/12 04:10:46;;;;;;;8.75;4.53;;;;;;;;;;5071641;28;20024;-70
2022/05/12 04:13:11;;;;;;;12.48;5.13;;;;;;;;;;5071434;28;20024;-70
2022/05/12 04:15:36;;;;;;;9.43;4.35;;;;;;;;;;5071493;28;20259;-69
2022/05/12 04:18:04;;;;;;;10.73;4.80;;;;;;;;;;5071286;28;20039;-70
2022/05/12 04:20:32;;;;;;;10.50;5.03;;;;;;;;;;5071495;28;20131;-69
2022/05/12 04:22:57;;;;;;;10.18;5.28;;;;;;;;;;5071031;28;20063;-69
2022/05/12 04:25:23;;;;;;;7.85;4.82;;;;;;;;;;5071251;28;20056;-66
2022/05/12 04:27:49;;;;;;;15.02;5.40;;;;;;;;;;5071233;28;20070;-69
2022/05/12 04:30:17;;;;;;;10.82;5.40;;;;;;;;;;5071279;28;20032;-71
2022/05/12 04:32:43;;;;;;;10.13;5.68;;;;;;;;;;5071309;28;20166;-68
2022/05/12 04:35:12;;;;;;;12.95;5.70;;;;;;;;;;5071046;28;20474;-67
2022/05/12 04:37:39;;;;;;;13.88;6.22;;;;;;;;;;5070854;28;20063;-66
2022/05/12 04:40:07;;;;;;;11.23;5.88;;;;;;;;;;5070942;28;20121;-69
2022/05/12 04:42:32;;;;;;;12.40;5.28;;;;;;;;;;5070973;28;20035;-66
2022/05/12 04:44:58;;;;;;;12.98;6.15;;;;;;;;;;5070810;28;20029;-63
2022/05/12 04:47:23;;;;;;;13.20;5.97;;;;;;;;;;5070906;28;20027;-62
2022/05/12 04:49:50;;;;;;;15.63;6.30;;;;;;;;;;5071034;28;20028;-69
2022/05/12 04:52:16;;;;;;;10.90;6.07;;;;;;;;;;5070791;28;20024;-65
2022/05/12 04:54:41;;;;;;;11.27;6.35;;;;;;;;;;5070655;28;20135;-67
2022/05/12 04:57:07;;;;;;;16.98;6.43;;;;;;;;;;5070633;28;20020;-67
2022/05/12 04:59:33;;;;;;;14.63;6.15;;;;;;;;;;5070588;28;20543;-64
2022/05/12 05:01:59;;;;;;;14.77;6.82;;;;;;;;;;5070696;28;20037;-68
2022/05/12 05:04:24;;;;;;;15.10;7.20;;;;;;;;;;5070753;28;20029;-69
2022/05/12 05:06:49;;;;;;;14.55;7.25;;;;;;;;;;5070588;28;20392;-70
2022/05/12 05:09:15;;;;;;;18.58;7.30;;;;;;;;;;5070454;28;20032;-69
2022/05/12 05:11:40;;;;;;;18.02;7.32;;;;;;;;;;5070650;28;20033;-65
2022/05/12 05:14:06;;;;;;;16.75;7.88;;;;;;;;;;5069966;28;20024;-69
2022/05/12 05:16:31;;;;;;;14.80;8.60;;;;;;;;;;5070477;28;20035;-70
2022/05/12 05:18:57;;;;;;;20.58;9.05;;;;;;;;;;5070529;28;20032;-69
2022/05/12 05:21:23;;;;;;;17.27;8.45;;;;;;;;;;5070557;28;20032;-67
2022/05/12 05:23:48;;;;;;;18.63;9.13;;;;;;;;;;5070178;28;20036;-70
2022/05/12 05:26:14;;;;;;;21.95;8.73;;;;;;;;;;5070222;28;20553;-66
2022/05/12 05:28:39;;;;;;;20.05;8.73;;;;;;;;;;5069881;28;20032;-66
2022/05/12 05:31:05;;;;;;;16.45;8.48;;;;;;;;;;5069970;28;20025;-70
2022/05/12 05:33:32;;;;;;;16.80;8.52;;;;;;;;;;5069929;28;20272;-69
2022/05/12 05:35:57;;;;;;;20.42;8.68;;;;;;;;;;5069985;28;20484;-67
2022/05/12 05:38:24;;;;;;;19.52;9.65;;;;;;;;;;5069803;28;20055;-65
2022/05/12 05:40:49;;;;;;;21.30;8.25;;;;;;;;;;5070191;28;20024;-67
2022/05/12 05:43:15;;;;;;;18.27;8.25;;;;;;;;;;5069846;28;20020;-71
2022/05/12 05:45:41;;;;;;;23.88;8.35;;;;;;;;;;5069671;28;20028;-68
2022/05/12 05:48:07;;;;;;;18.35;7.90;;;;;;;;;;5070021;28;20399;-71
2022/05/12 05:53:26;;;;;;;20.90;8.80;;;;;;;;;;5070061;28;20038;-69
2022/05/12 05:55:57;;;;;;;21.00;8.98;;;;;;;;;;5069653;28;20508;-71
2022/05/12 05:58:23;;;;;;;19.23;8.20;;;;;;;;;;5069787;28;20419;-65
2022/05/12 06:00:49;;;;;;;15.95;8.30;;;;;;;;;;5069644;28;20511;-70
2022/05/12 06:03:15;;;;;;;21.02;8.10;;;;;;;;;;5069631;28;20028;-70
2022/05/12 06:05:41;;;;;;;12.95;7.35;;;;;;;;;;5073568;28;20020;-70
2022/05/12 06:08:10;;;;;;;14.25;7.20;;;;;;;;;;5076275;28;20032;-67
2022/05/12 06:10:36;;;;;;;13.95;6.13;;;;;;;;;;5076473;28;20021;-68
2022/05/12 06:13:03;;;;;;;8.75;3.83;;;;;;;;;;5076333;28;20435;-67
2022/05/12 06:15:28;;;;;;;15.55;3.80;;;;;;;;;;5076217;28;20016;-70
2022/05/12 06:17:54;;;;;;;17.02;4.28;;;;;;;;;;5076244;28;20025;-69
2022/05/12 06:20:21;;;;;;;14.77;4.30;;;;;;;;;;5076313;28;20028;-69
2022/05/12 06:22:47;;;;;;;19.67;5.07;;;;;;;;;;5076232;28;20097;-66
2022/05/12 06:25:15;;;;;;;15.60;4.68;;;;;;;;;;5075651;28;20024;-69
2022/05/12 06:27:41;;;;;;;12.77;4.05;;;;;;;;;;5076237;28;20032;-68
2022/05/12 06:30:11;;;;;;;11.55;4.10;;;;;;;;;;5076119;28;20043;-69
2022/05/12 06:32:37;;;;;;;13.85;4.13;;;;;;;;;;5076543;28;20108;-68
2022/05/12 06:35:03;;;;;;;10.27;3.88;;;;;;;;;;5075869;28;20029;-67
2022/05/12 06:37:29;;;;;;;14.95;4.30;;;;;;;;;;5076395;28;20395;-65
2022/05/12 06:39:54;;;;;;;12.88;4.15;;;;;;;;;;5075757;28;20044;-70
2022/05/12 06:42:20;;;;;;;11.82;4.28;;;;;;;;;;5076273;28;20056;-66
2022/05/12 06:44:46;;;;;;;11.23;3.90;;;;;;;;;;5075622;28;20040;-66
2022/05/12 06:47:15;;;;;;;11.13;4.28;;;;;;;;;;5076389;28;20029;-69
2022/05/12 06:49:41;;;;;;;12.35;4.53;;;;;;;;;;5075849;28;20079;-70
2022/05/12 06:52:08;;;;;;;11.40;3.72;;;;;;;;;;5076160;28;20025;-69
2022/05/12 06:54:37;;;;;;;9.25;3.92;;;;;;;;;;5075619;28;20044;-64
2022/05/12 06:57:04;;;;;;;9.63;3.83;;;;;;;;;;5075942;28;20028;-70
2022/05/12 06:59:30;;;;;;;12.68;4.07;;;;;;;;;;5075943;28;20115;-70
2022/05/12 07:01:55;;;;;;;8.73;3.72;;;;;;;;;;5075935;28;20119;-70
2022/05/12 07:04:21;;;;;;;14.02;3.90;;;;;;;;;;5076000;28;20266;-70
2022/05/12 07:06:47;;;;;;;10.63;3.92;;;;;;;;;;5076188;28;20115;-65
2022/05/12 07:09:13;;;;;;;13.27;3.33;;;;;;;;;;5076226;28;20029;-63
2022/05/12 07:11:39;;;;;;;12.40;3.42;;;;;;;;;;5075857;28;20020;-69
2022/05/12 07:14:04;;;;;;;13.57;3.60;;;;;;;;;;5076091;28;20109;-71
2022/05/12 07:16:30;;;;;;;8.85;3.70;;;;;;;;;;5073242;28;20027;-64
2022/05/12 07:18:55;;;;;;;9.32;3.50;;;;;;;;;;5072412;28;20404;-72
2022/05/12 07:26:51;;;;;;;7.50;3.13;;;;;;;;;;5072424;28;20028;-66
2022/05/12 07:29:20;;;;;;;12.00;3.78;;;;;;;;;;5072041;28;20033;-65
2022/05/12 07:31:48;;;;;;;11.05;3.70;;;;;;;;;;5072340;28;20036;-69
2022/05/12 07:34:14;;;;;;;21.80;4.05;;;;;;;;;;5072176;28;20606;-68
2022/05/12 07:36:43;;;;;;;11.70;3.67;;;;;;;;;;5071902;28;20119;-70
2022/05/12 07:39:12;;;;;;;11.40;4.35;;;;;;;;;;5071909;28;20567;-69
2022/05/12 07:41:41;;;;;;;11.02;4.30;;;;;;;;;;5072386;28;20123;-64
2022/05/12 07:44:14;;;;;;;16.48;3.42;;;;;;;;;;5071922;28;20032;-71
2022/05/12 07:46:40;;;;;;;20.70;4.38;;;;;;;;;;5071980;28;20028;-67
2022/05/12 07:49:06;;;;;;;14.98;4.70;;;;;;;;;;5071578;28;20032;-64
2022/05/12 07:51:31;;;;;;;13.90;4.80;;;;;;;;;;5071858;28;20553;-69
2022/05/12 07:53:57;;;;;;;15.05;4.95;;;;;;;;;;5072033;28;20206;-70
2022/05/12 07:56:25;;;;;;;14.10;4.45;;;;;;;;;;5071880;28;20025;-69
2022/05/12 07:58:50;;;;;;;17.27;4.90;;;;;;;;;;5072353;28;20060;-65
2022/05/12 08:01:18;;;;;;;11.60;4.90;;;;;;;;;;5071642;28;20102;-71
2022/05/12 08:03:44;;;;;;;10.15;4.18;;;;;;;;;;5071751;28;20260;-70
2022/05/12 08:06:12;;;;;;;13.15;4.82;;;;;;;;;;5071346;28;20090;-66
2022/05/12 08:08:38;;;;;;;12.82;4.43;;;;;;;;;;5071747;28;20489;-68
2022/05/12 08:11:05;;;;;;;11.60;4.10;;;;;;;;;;5071455;28;20158;-70
2022/05/12 08:13:32;;;;;;;16.95;4.45;;;;;;;;;;5071851;28;20102;-64
2022/05/12 08:15:58;;;;;;;9.80;4.10;;;;;;;;;;5071149;28;20024;-69
2022/05/12 08:18:28;;;;;;;14.93;4.10;;;;;;;;;;5071722;28;20085;-69
2022/05/12 08:20:54;;;;;;;12.77;4.60;;;;;;;;;;5071596;28;20597;-71
2022/05/12 08:23:20;;;;;;;11.07;3.55;;;;;;;;;;5071348;28;20111;-69
2022/05/12 08:25:47;;;;;;;10.98;3.83;;;;;;;;;;5070912;28;20154;-68
2022/05/12 08:28:15;;;;;;;9.93;3.72;;;;;;;;;;5071099;28;20020;-71
2022/05/12 08:30:44;;;;;;;10.55;3.63;;;;;;;;;;5071022;28;20411;-65
2022/05/12 08:33:09;;;;;;;14.82;3.85;;;;;;;;;;5071976;28;20104;-72
2022/05/12 08:35:35;;;;;;;12.63;4.28;;;;;;;;;;5071213;28;20181;-67
2022/05/12 08:38:00;;;;;;;9.88;4.07;;;;;;;;;;5071159;28;20040;-69
2022/05/12 08:40:38;;;;;;;10.93;3.85;;;;;;;;;;5071177;28;20029;-70
2022/05/12 08:43:25;;;;;;;12.40;3.47;;;;;;;;;;5071195;28;20024;-69
2022/05/12 08:45:53;;;;;;;12.75;3.50;;;;;;;;;;5070589;28;20106;-70
2022/05/12 08:48:19;;;;;;;13.40;3.97;;;;;;;;;;5071355;28;20025;-70
2022/05/12 08:50:50;;;;;;;11.80;3.85;;;;;;;;;;5070701;28;20064;-66
2022/05/12 08:53:20;;;;;;;11.57;4.00;;;;;;;;;;5070913;28;20487;-69
2022/05/12 08:55:53;;;;;;;12.27;3.63;;;;;;;;;;5070403;28;20037;-69
2022/05/12 08:58:32;;;;;;;15.23;4.28;;;;;;;;;;5070721;28;20166;-68
2022/05/12 09:00:58;;;;;;;10.30;3.77;;;;;;;;;;5070553;28;20028;-67
2022/05/12 09:03:31;;;;;;;12.55;3.88;;;;;;;;;;5070736;28;20021;-66
2022/05/12 09:06:06;;;;;;;14.00;4.00;;;;;;;;;;5070388;28;20117;-69
2022/05/12 09:08:57;;;;;;;10.65;4.13;;;;;;;;;;5070729;28;20183;-71
2022/05/12 09:11:57;;;;;;;12.30;4.15;;;;;;;;;;5070530;28;20025;-66
2022/05/12 09:14:39;;;;;;;15.63;4.15;;;;;;;;;;5071007;28;20024;-65
2022/05/12 09:17:05;;;;;;;10.50;4.03;;;;;;;;;;5070086;28;20024;-65
2022/05/12 09:19:31;;;;;;;14.65;4.38;;;;;;;;;;5070384;28;20100;-71
2022/05/12 09:21:56;;;;;;;12.10;4.43;;;;;;;;;;5070401;28;20469;-63
2022/05/12 09:24:22;;;;;;;9.93;3.90;;;;;;;;;;5070584;28;20032;-66
2022/05/12 09:27:05;;;;;;;11.65;4.60;;;;;;;;;;5069893;28;20024;-64
2022/05/12 09:29:31;;;;;;;12.23;4.38;;;;;;;;;;5070083;28;20488;-68
2022/05/12 09:32:02;;;;;;;11.00;3.97;;;;;;;;;;5070071;28;20434;-67
2022/05/12 09:34:33;;;;;;;10.68;4.15;;;;;;;;;;5070175;28;20115;-67
2022/05/12 09:37:16;;;;;;;10.88;4.30;;;;;;;;;;5070008;28;20017;-65
2022/05/12 09:39:48;;;;;;;13.50;4.78;;;;;;;;;;5069292;28;20041;-65
2022/05/12 09:42:29;;;;;;;12.27;4.57;;;;;;;;;;5070224;28;20028;-68
2022/05/12 09:45:06;;;;;;;10.55;4.38;;;;;;;;;;5069911;28;20078;-64
2022/05/12 09:47:33;;;;;;;11.48;4.07;;;;;;;;;;5069835;28;20505;-70
2022/05/12 09:50:20;;;;;;;10.70;3.97;;;;;;;;;;5069728;28;20032;-71
2022/05/12 09:52:55;;;;;;;12.10;4.47;;;;;;;;;;5069955;28;20042;-65
2022/05/12 09:55:27;;;;;;;12.13;4.28;;;;;;;;;;5069760;28;20020;-69
2022/05/12 09:58:02;;;;;;;11.63;4.43;;;;;;;;;;5070392;28;20066;-68
2022/05/12 10:00:38;;;;;;;13.70;4.30;;;;;;;;;;5069765;28;20594;-69
2022/05/12 10:09:18;;;;;;;20.30;4.65;;;;;;;;;;5070043;28;20043;-69
2022/05/12 10:11:47;;;;;;;10.85;4.30;;;;;;;;;;5069534;28;20099;-69
2022/05/12 10:14:29;;;;;;;10.43;3.60;;;;;;;;;;5069806;28;20123;-67
2022/05/12 10:16:58;;;;;;;11.75;4.22;;;;;;;;;;5069908;28;20032;-66
2022/05/12 10:19:26;;;;;;;10.85;3.92;;;;;;;;;;5069649;28;20033;-66
2022/05/12 10:22:13;;;;;;;11.25;4.30;;;;;;;;;;5069527;28;20502;-69
2022/05/12 10:24:57;;;;;;;11.63;4.00;;;;;;;;;;5069604;28;20395;-68
2022/05/12 10:27:26;;;;;;;9.05;3.83;;;;;;;;;;5068982;28;20023;-65
2022/05/12 10:30:19;;;;;;;16.17;4.15;;;;;;;;;;5069426;28;20106;-68
2022/05/12 10:32:54;;;;;;;8.93;3.63;;;;;;;;;;5069898;28;20456;-69
2022/05/12 10:35:31;;;;;;;11.02;4.00;;;;;;;;;;5069913;28;20035;-70
2022/05/12 10:38:38;;;;;;;14.25;3.95;;;;;;;;;;5051235;28;20391;-69
2022/05/12 10:41:35;;;;;;;10.63;3.67;;;;;;;;;;5047337;28;20131;-65
2022/05/12 10:44:17;;;;;;;11.10;3.50;;;;;;;;;;5069586;28;20033;-70
2022/05/12 10:46:45;;;;;;;8.32;3.22;;;;;;;;;;5069152;28;20027;-69
2022/05/12 10:49:23;;;;;;;9.02;3.40;;;;;;;;;;5069618;28;20052;-68
2022/05/12 10:52:00;;;;;;;9.30;3.78;;;;;;;;;;5071287;28;20024;-68
2022/05/12 10:54:36;;;;;;;12.38;4.30;;;;;;;;;;5073389;28;20515;-70
2022/05/12 10:57:32;;;;;;;11.55;3.42;;;;;;;;;;5074164;28;20039;-68
2022/05/12 11:00:22;;;;;;;10.07;3.60;;;;;;;;;;5073411;28;20512;-70
2022/05/12 11:02:55;;;;;;;10.80;3.65;;;;;;;;;;5073675;28;20384;-66
2022/05/12 11:05:37;;;;;;;9.07;3.28;;;;;;;;;;5073208;28;20037;-67
2022/05/12 11:08:11;;;;;;;10.45;3.47;;;;;;;;;;5073131;28;20431;-69
2022/05/12 11:10:44;;;;;;;10.20;3.28;;;;;;;;;;5072946;28;20119;-70
2022/05/12 11:13:38;;;;;;;11.57;3.65;;;;;;;;;;5072628;28;20043;-68
2022/05/12 11:16:15;;;;;;;10.05;3.10;;;;;;;;;;5072533;28;20029;-70
2022/05/12 11:18:43;;;;;;;11.43;3.25;;;;;;;;;;5072683;28;20029;-70
2022/05/12 11:21:30;;;;;;;8.75;3.05;;;;;;;;;;5072616;28;20063;-65
2022/05/12 11:24:11;;;;;;;8.93;2.95;;;;;;;;;;5072761;28;20394;-70
2022/05/12 11:26:59;;;;;;;9.85;3.08;;;;;;;;;;5072388;28;20515;-68
2022/05/12 11:29:52;;;;;;;9.70;3.10;;;;;;;;;;5072396;28;20025;-68
2022/05/12 11:32:53;;;;;;;11.23;3.17;;;;;;;;;;5072445;28;20449;-66
2022/05/12 11:35:44;;;;;;;7.68;2.85;;;;;;;;;;4970993;28;20621;-65
2022/05/12 11:38:44;;;;;;;11.27;3.10;;;;;;;;;;5068807;28;20075;-69
2022/05/12 11:41:19;;;;;;;13.15;3.45;;;;;;;;;;5072378;28;20033;-71
2022/05/12 11:46:54;;;;;;;13.27;3.72;;;;;;;;;;5072154;28;20281;-65
2022/05/12 11:49:34;;;;;;;9.65;3.35;;;;;;;;;;5072384;28;20028;-67
2022/05/12 11:52:05;;;;;;;18.33;4.15;;;;;;;;;;5071831;28;20040;-70
2022/05/12 11:54:35;;;;;;;14.55;4.30;;;;;;;;;;5072130;28;20028;-71
2022/05/12 11:57:03;;;;;;;13.53;4.40;;;;;;;;;;5071779;28;20025;-70
2022/05/12 11:59:33;;;;;;;9.00;3.83;;;;;;;;;;5072127;28;20040;-64
2022/05/12 12:02:06;;;;;;;12.10;3.30;;;;;;;;;;5071794;28;20032;-68
2022/05/12 12:04:39;;;;;;;13.32;3.70;;;;;;;;;;5071369;28;20044;-66
2022/05/12 12:07:07;;;;;;;12.25;3.88;;;;;;;;;;5071236;28;20081;-69
2022/05/12 12:09:36;;;;;;;14.65;3.65;;;;;;;;;;5071543;28;20043;-66
2022/05/12 12:12:07;;;;;;;10.60;3.53;;;;;;;;;;5071499;28;20392;-70
2022/05/12 12:14:50;;;;;;;11.73;3.22;;;;;;;;;;5071672;28;20493;-67
2022/05/12 12:17:25;;;;;;;16.50;3.95;;;;;;;;;;5071258;28;20028;-64
2022/05/12 12:19:52;;;;;;;15.98;3.80;;;;;;;;;;5071764;28;20056;-65
2022/05/12 12:22:23;;;;;;;14.05;3.85;;;;;;;;;;5071180;28;20142;-66
2022/05/12 12:24:59;;;;;;;17.60;3.80;;;;;;;;;;5071468;28;20112;-65
2022/05/12 12:27:30;;;;;;;16.50;4.00;;;;;;;;;;5070958;28;20435;-68
2022/05/12 12:30:32;;;;;;;15.68;4.05;;;;;;;;;;5071223;28;20024;-69
2022/05/12 12:33:31;;;;;;;11.18;3.85;;;;;;;;;;5071215;28;20021;-66
2022/05/12 12:35:56;;;;;;;11.10;3.50;;;;;;;;;;5071374;28;20148;-71
2022/05/12 12:38:40;;;;;;;8.90;4.03;;;;;;;;;;5070772;28;20424;-67
2022/05/12 12:41:06;;;;;;;13.68;3.78;;;;;;;;;;5071052;28;20507;-66
2022/05/12 12:43:43;;;;;;;10.60;3.67;;;;;;;;;;5070695;28;20021;-69
2022/05/12 12:46:21;;;;;;;13.43;3.53;;;;;;;;;;5071008;28;20021;-68
2022/05/12 12:48:53;;;;;;;13.88;3.55;;;;;;;;;;5070584;28;20510;-70
2022/05/12 12:51:28;;;;;;;10.57;3.70;;;;;;;;;;5070998;28;20056;-67
2022/05/12 12:56:38;;;;;;;12.85;3.50;;;;;;;;;;5071002;28;20030;-65
2022/05/12 12:59:06;;;;;;;14.88;4.28;;;;;;;;;;5070554;28;20032;-67
2022/05/12 13:01:43;;;;;;;14.43;4.00;;;;;;;;;;5070535;28;20068;-68
2022/05/12 13:04:09;;;;;;;17.73;3.97;;;;;;;;;;5070570;28;20033;-67
2022/05/12 13:06:37;;;;;;;11.05;3.65;;;;;;;;;;5070515;28;20028;-66
2022/05/12 13:09:09;;;;;;;17.00;4.22;;;;;;;;;;5070629;28;20031;-66
2022/05/12 13:11:38;;;;;;;10.48;3.75;;;;;;;;;;5070703;28;20020;-67
2022/05/12 13:14:04;;;;;;;15.65;3.85;;;;;;;;;;5069837;28;20028;-67
2022/05/12 13:16:35;;;;;;;16.48;4.55;;;;;;;;;;5070049;28;20024;-68
2022/05/12 13:19:02;;;;;;;14.07;4.30;;;;;;;;;;5070042;28;20024;-68
2022/05/12 13:21:45;;;;;;;13.20;4.25;;;;;;;;;;5070640;28;20047;-64
2022/05/12 13:24:28;;;;;;;14.20;4.28;;;;;;;;;;5070194;28;20119;-66
2022/05/12 13:26:58;;;;;;;15.70;4.40;;;;;;;;;;5052517;28;20618;-67
2022/05/12 13:29:30;;;;;;;11.50;4.32;;;;;;;;;;5070152;28;20024;-69
2022/05/12 13:32:01;;;;;;;14.85;4.10;;;;;;;;;;5070259;28;20024;-65
2022/05/12 13:34:28;;;;;;;14.65;4.38;;;;;;;;;;5070028;28;20024;-68
2022/05/12 13:37:14;;;;;;;14.57;4.25;;;;;;;;;;5070059;28;20107;-66
2022/05/12 13:39:54;;;;;;;20.38;4.72;;;;;;;;;;5069886;28;20219;-64
2022/05/12 13:42:44;;;;;;;17.92;4.97;;;;;;;;;;5070183;28;20254;-68
2022/05/12 13:45:22;;;;;;;24.75;5.70;;;;;;;;;;5070026;28;20094;-70
2022/05/12 13:47:50;;;;;;;14.65;4.35;;;;;;;;;;5069970;28;20032;-65
2022/05/12 13:50:19;;;;;;;15.82;4.90;;;;;;;;;;5069877;28;20396;-70
2022/05/12 13:52:52;;;;;;;18.30;5.15;;;;;;;;;;5069807;28;20528;-71
2022/05/12 13:55:27;;;;;;;17.40;4.88;;;;;;;;;;5069930;28;20020;-70
2022/05/12 13:57:55;;;;;;;18.23;4.90;;;;;;;;;;5069643;28;20029;-65
2022/05/12 14:00:40;;;;;;;20.75;5.38;;;;;;;;;;5069811;28;20054;-69
2022/05/12 14:03:18;;;;;;;15.00;5.28;;;;;;;;;;5069869;28;20852;-69
2022/05/12 14:05:44;;;;;;;15.48;5.40;;;;;;;;;;5069927;28;20066;-69
2022/05/12 14:08:09;;;;;;;16.63;4.43;;;;;;;;;;5069481;28;20025;-67
2022/05/12 14:10:42;;;;;;;14.18;4.93;;;;;;;;;;5069631;28;20025;-65
2022/05/12 14:21:50;;;;;;;19.38;5.07;;;;;;;;;;5070213;28;20571;-68
2022/05/12 14:24:17;;;;;;;19.88;5.10;;;;;;;;;;5069527;28;20078;-70
2022/05/12 14:26:44;;;;;;;15.23;4.90;;;;;;;;;;5072004;28;20024;-71
2022/05/12 14:29:10;;;;;;;18.98;5.45;;;;;;;;;;5072765;28;20016;-65
2022/05/12 14:31:36;;;;;;;15.50;4.55;;;;;;;;;;5073803;28;20023;-69
2022/05/12 14:34:03;;;;;;;15.25;5.00;;;;;;;;;;5073578;28;20090;-67
2022/05/12 14:36:28;;;;;;;18.00;5.40;;;;;;;;;;5073808;28;20032;-65
2022/05/12 14:38:54;;;;;;;16.40;5.32;;;;;;;;;;5072955;28;20041;-64
2022/05/12 14:41:21;;;;;;;12.50;4.53;;;;;;;;;;5073458;28;20428;-70
2022/05/12 14:43:47;;;;;;;17.80;4.93;;;;;;;;;;5072913;28;20064;-69
2022/05/12 14:46:13;;;;;;;18.77;4.95;;;;;;;;;;5073177;28;20068;-69
2022/05/12 14:48:43;;;;;;;16.25;4.97;;;;;;;;;;5072749;28;20387;-68
2022/05/12 14:51:09;;;;;;;11.45;4.50;;;;;;;;;;5073245;28;20036;-70
2022/05/12 14:53:36;;;;;;;15.98;4.70;;;;;;;;;;5072722;28;20036;-65
2022/05/12 14:56:02;;;;;;;17.13;4.72;;;;;;;;;;5073318;28;20037;-72
2022/05/12 14:58:28;;;;;;;17.25;4.65;;;;;;;;;;5072675;28;20028;-64
2022/05/12 15:00:54;;;;;;;16.25;4.97;;;;;;;;;;5072652;28;20024;-70
2022/05/12 15:03:20;;;;;;;15.60;5.18;;;;;;;;;;5072942;28;20016;-68
2022/05/12 15:05:45;;;;;;;16.83;5.22;;;;;;;;;;5073045;28;20035;-67
2022/05/12 15:08:11;;;;;;;22.27;5.50;;;;;;;;;;5072810;28;20029;-66
2022/05/12 15:10:36;;;;;;;13.63;4.70;;;;;;;;;;5072739;28;20035;-68
2022/05/12 15:13:02;;;;;;;24.20;4.82;;;;;;;;;;5072812;28;20396;-65
2022/05/12 15:15:29;;;;;;;12.27;4.60;;;;;;;;;;5072513;28;20103;-69
2022/05/12 15:17:55;;;;;;;15.88;4.90;;;;;;;;;;5072643;28;20456;-69
2022/05/12 15:20:26;;;;;;;18.77;4.80;;;;;;;;;;5072495;28;20078;-70